Mathilde Maersk — OUJS2 — position and weather

sailwx.info

Track history (hours):
 
Tides and Currents Weather Stations Pressure Air Temp Water Temp Dewpoint Dewpoint Depression Visibility Wind Speed Wind Dir Waves Ship Positions

Mathilde Maersk

Last reported at 2017-May-24 15:30 UTC. Time now 2017-May-24 15:44 UTC.
Position N 34°25' W 122°55'.

Length 367 m; draft 12.2 m.

Type: Ship (hazmat cat B). MMSI: 220597990.

Date/timePositionNaut miles runAvg speedWind from/ knotsBaromVisibWave heightAir tempDewpointWater temp
2017-May-24 15:30N 34°25' W 122°55'714.8
2017-May-24 15:01N 34°25' W 123°04'714.5
2017-May-24 14:31N 34°25' W 123°12'1715.0
2017-May-24 13:23N 34°25' W 123°33'514.3
2017-May-24 13:00N 34°25' W 123°39'814.9
2017-May-24 12:29N 34°25' W 123°49'714.7
2017-May-24 12:00N 34°25' W 123°57'714.8
2017-May-24 11:31N 34°25' W 124°06'714.7
2017-May-24 11:01N 34°25' W 124°15'814.7
2017-May-24 10:29N 34°25' W 124°24'714.5
2017-May-24 10:00N 34°25' W 124°33'714.6
2017-May-24 09:30N 34°25' W 124°42'714.5
2017-May-24 09:00N 34°25' W 124°51'714.7
2017-May-24 08:30N 34°25' W 124°59'714.6
2017-May-24 08:00N 34°25' W 125°08'714.2
2017-May-24 07:30N 34°26' W 125°17'714.8
2017-May-24 07:00N 34°30' W 125°24'815.0
2017-May-24 06:29N 34°35' W 125°32'1114.8
2017-May-24 05:43N 34°42' W 125°43'414.8
2017-May-24 05:29N 34°44' W 125°46'714.7
2017-May-24 05:00N 34°48' W 125°53'814.6
2017-May-24 04:25N 34°53' W 126°01'717.0
2017-May-24 04:01N 34°57' W 126°08'1019.2
2017-May-24 03:30N 35°03' W 126°18'1119.2
2017-May-24 02:56N 35°10' W 126°29'1719.1
2017-May-24 02:03N 35°19' W 126°45'419.4
2017-May-24 01:50N 35°22' W 126°50'819.2
2017-May-24 01:24N 35°27' W 126°58'818.9
2017-May-24 00:59N 35°31' W 127°06'1019.1
2017-May-24 00:28N 35°37' W 127°15'919.2
2017-May-24 00:00N 35°42' W 127°24'1019.0
2017-May-23 23:30N 35°48' W 127°34'5018.7
2017-May-23 20:51N 36°16' W 128°24'7518.6
2017-May-23 16:48N 36°60' W 129°41'518.7
2017-May-23 16:30N 37°03' W 129°46'1018.9
2017-May-23 15:57N 37°09' W 129°57'1018.8
2017-May-23 15:26N 37°14' W 130°07'818.5
2017-May-23 15:00N 37°19' W 130°16'3618.6
2017-May-23 13:03N 37°39' W 130°53'10018.6
2017-May-23 07:41N 38°34' W 132°39'318.1
2017-May-23 07:30N 38°36' W 132°43'918.0
2017-May-23 07:00N 38°40' W 132°53'  
Track history (hours):
 
Tides and Currents Weather Stations Pressure Air Temp Water Temp Dewpoint Dewpoint Depression Visibility Wind Speed Wind Dir Waves Ship Positions

Mathilde Maersk

Last reported at 2017-May-24 15:30 UTC. Time now 2017-May-24 15:44 UTC.
Position N 34°25' W 122°55'.

Length 367 m; draft 12.2 m.

Type: Ship (hazmat cat B). MMSI: 220597990.

Date/timePositionNaut miles runAvg speedWind from/ knotsBaromVisibWave heightAir tempDewpointWater temp
2017-May-24 15:30N 34°25' W 122°55'714.8
2017-May-24 15:01N 34°25' W 123°04'714.5
2017-May-24 14:31N 34°25' W 123°12'1715.0
2017-May-24 13:23N 34°25' W 123°33'514.3
2017-May-24 13:00N 34°25' W 123°39'814.9
2017-May-24 12:29N 34°25' W 123°49'714.7
2017-May-24 12:00N 34°25' W 123°57'714.8
2017-May-24 11:31N 34°25' W 124°06'714.7
2017-May-24 11:01N 34°25' W 124°15'814.7
2017-May-24 10:29N 34°25' W 124°24'714.5
2017-May-24 10:00N 34°25' W 124°33'714.6
2017-May-24 09:30N 34°25' W 124°42'714.5
2017-May-24 09:00N 34°25' W 124°51'714.7
2017-May-24 08:30N 34°25' W 124°59'714.6
2017-May-24 08:00N 34°25' W 125°08'714.2
2017-May-24 07:30N 34°26' W 125°17'714.8
2017-May-24 07:00N 34°30' W 125°24'815.0
2017-May-24 06:29N 34°35' W 125°32'1114.8
2017-May-24 05:43N 34°42' W 125°43'414.8
2017-May-24 05:29N 34°44' W 125°46'714.7
2017-May-24 05:00N 34°48' W 125°53'814.6
2017-May-24 04:25N 34°53' W 126°01'717.0
2017-May-24 04:01N 34°57' W 126°08'1019.2
2017-May-24 03:30N 35°03' W 126°18'1119.2
2017-May-24 02:56N 35°10' W 126°29'1719.1
2017-May-24 02:03N 35°19' W 126°45'419.4
2017-May-24 01:50N 35°22' W 126°50'819.2
2017-May-24 01:24N 35°27' W 126°58'818.9
2017-May-24 00:59N 35°31' W 127°06'1019.1
2017-May-24 00:28N 35°37' W 127°15'919.2
2017-May-24 00:00N 35°42' W 127°24'1019.0
2017-May-23 23:30N 35°48' W 127°34'5018.7
2017-May-23 20:51N 36°16' W 128°24'7518.6
2017-May-23 16:48N 36°60' W 129°41'518.7
2017-May-23 16:30N 37°03' W 129°46'1018.9
2017-May-23 15:57N 37°09' W 129°57'1018.8
2017-May-23 15:26N 37°14' W 130°07'818.5
2017-May-23 15:00N 37°19' W 130°16'3618.6
2017-May-23 13:03N 37°39' W 130°53'10018.6
2017-May-23 07:41N 38°34' W 132°39'318.1
2017-May-23 07:30N 38°36' W 132°43'918.0
2017-May-23 07:00N 38°40' W 132°53'  

Dump ship's entire track history